sensor_id;sensor_type;location;lat;lon;timestamp;P1;durP1;ratioP1;P2;durP2;ratioP2
32399;SDS011;45045;45.440;9.178;2022-10-28T00:01:42;52.38;;;29.80;;
32399;SDS011;45045;45.440;9.178;2022-10-28T00:04:08;45.83;;;30.02;;
32399;SDS011;45045;45.440;9.178;2022-10-28T00:06:34;43.33;;;29.70;;
32399;SDS011;45045;45.440;9.178;2022-10-28T00:09:00;50.15;;;28.88;;
32399;SDS011;45045;45.440;9.178;2022-10-28T00:11:28;49.90;;;31.55;;
32399;SDS011;45045;45.440;9.178;2022-10-28T00:13:56;44.40;;;28.10;;
32399;SDS011;45045;45.440;9.178;2022-10-28T00:16:24;43.92;;;28.33;;
32399;SDS011;45045;45.440;9.178;2022-10-28T00:21:23;43.70;;;27.05;;
32399;SDS011;45045;45.440;9.178;2022-10-28T00:23:50;46.70;;;27.83;;
32399;SDS011;45045;45.440;9.178;2022-10-28T00:26:17;45.33;;;30.40;;
32399;SDS011;45045;45.440;9.178;2022-10-28T00:28:47;46.78;;;29.13;;
32399;SDS011;45045;45.440;9.178;2022-10-28T00:31:15;42.40;;;27.15;;
32399;SDS011;45045;45.440;9.178;2022-10-28T00:33:42;43.72;;;28.65;;
32399;SDS011;45045;45.440;9.178;2022-10-28T00:36:09;45.40;;;29.17;;
32399;SDS011;45045;45.440;9.178;2022-10-28T00:38:35;44.15;;;27.73;;
32399;SDS011;45045;45.440;9.178;2022-10-28T00:41:01;40.08;;;26.02;;
32399;SDS011;45045;45.440;9.178;2022-10-28T00:43:44;44.05;;;27.13;;
32399;SDS011;45045;45.440;9.178;2022-10-28T00:46:19;37.60;;;26.05;;
32399;SDS011;45045;45.440;9.178;2022-10-28T00:48:52;38.15;;;25.70;;
32399;SDS011;45045;45.440;9.178;2022-10-28T00:51:28;37.83;;;24.75;;
32399;SDS011;45045;45.440;9.178;2022-10-28T00:53:57;40.00;;;25.08;;
32399;SDS011;45045;45.440;9.178;2022-10-28T00:56:24;42.05;;;26.23;;
32399;SDS011;45045;45.440;9.178;2022-10-28T00:58:54;36.65;;;24.50;;
32399;SDS011;45045;45.440;9.178;2022-10-28T01:01:23;41.78;;;25.50;;
32399;SDS011;45045;45.440;9.178;2022-10-28T01:03:48;41.40;;;26.63;;
32399;SDS011;45045;45.440;9.178;2022-10-28T01:06:14;38.55;;;24.80;;
32399;SDS011;45045;45.440;9.178;2022-10-28T01:08:40;42.20;;;26.23;;
32399;SDS011;45045;45.440;9.178;2022-10-28T01:11:12;37.30;;;24.38;;
32399;SDS011;45045;45.440;9.178;2022-10-28T01:30:29;39.47;;;25.15;;
32399;SDS011;45045;45.440;9.178;2022-10-28T01:35:47;41.08;;;25.23;;
32399;SDS011;45045;45.440;9.178;2022-10-28T01:38:25;40.17;;;25.55;;
32399;SDS011;45045;45.440;9.178;2022-10-28T01:41:14;35.67;;;25.40;;
32399;SDS011;45045;45.440;9.178;2022-10-28T01:46:27;42.42;;;25.10;;
32399;SDS011;45045;45.440;9.178;2022-10-28T01:49:10;39.58;;;26.33;;
32399;SDS011;45045;45.440;9.178;2022-10-28T01:51:46;36.78;;;24.70;;
32399;SDS011;45045;45.440;9.178;2022-10-28T01:54:19;42.92;;;26.88;;
32399;SDS011;45045;45.440;9.178;2022-10-28T01:56:48;40.17;;;30.08;;
32399;SDS011;45045;45.440;9.178;2022-10-28T01:59:18;40.85;;;26.95;;
32399;SDS011;45045;45.440;9.178;2022-10-28T02:01:46;39.92;;;26.90;;
32399;SDS011;45045;45.440;9.178;2022-10-28T02:04:12;40.28;;;26.25;;
32399;SDS011;45045;45.440;9.178;2022-10-28T02:06:39;50.60;;;28.15;;
32399;SDS011;45045;45.440;9.178;2022-10-28T02:16:53;40.58;;;27.77;;
32399;SDS011;45045;45.440;9.178;2022-10-28T02:19:42;42.03;;;29.45;;
32399;SDS011;45045;45.440;9.178;2022-10-28T02:32:35;36.28;;;26.23;;
32399;SDS011;45045;45.440;9.178;2022-10-28T02:35:05;40.92;;;26.40;;
32399;SDS011;45045;45.440;9.178;2022-10-28T02:37:35;38.92;;;25.88;;
32399;SDS011;45045;45.440;9.178;2022-10-28T02:40:05;35.72;;;24.58;;
32399;SDS011;45045;45.440;9.178;2022-10-28T02:42:36;39.03;;;28.35;;
32399;SDS011;45045;45.440;9.178;2022-10-28T02:45:10;39.13;;;27.13;;
32399;SDS011;45045;45.440;9.178;2022-10-28T02:47:47;41.92;;;26.88;;
32399;SDS011;45045;45.440;9.178;2022-10-28T02:50:29;36.88;;;25.13;;
32399;SDS011;45045;45.440;9.178;2022-10-28T02:52:58;42.30;;;27.00;;
32399;SDS011;45045;45.440;9.178;2022-10-28T02:55:28;34.30;;;26.08;;
32399;SDS011;45045;45.440;9.178;2022-10-28T02:57:58;39.03;;;25.33;;
32399;SDS011;45045;45.440;9.178;2022-10-28T03:00:24;39.25;;;26.02;;
32399;SDS011;45045;45.440;9.178;2022-10-28T03:02:50;36.95;;;24.40;;
32399;SDS011;45045;45.440;9.178;2022-10-28T03:05:16;32.55;;;23.80;;
32399;SDS011;45045;45.440;9.178;2022-10-28T03:07:42;39.33;;;25.80;;
32399;SDS011;45045;45.440;9.178;2022-10-28T03:10:08;34.08;;;22.33;;
32399;SDS011;45045;45.440;9.178;2022-10-28T03:12:34;33.83;;;21.13;;
32399;SDS011;45045;45.440;9.178;2022-10-28T03:14:59;35.38;;;22.63;;
32399;SDS011;45045;45.440;9.178;2022-10-28T03:17:25;30.77;;;22.27;;
32399;SDS011;45045;45.440;9.178;2022-10-28T03:19:51;35.92;;;22.27;;
32399;SDS011;45045;45.440;9.178;2022-10-28T03:22:16;35.78;;;23.98;;
32399;SDS011;45045;45.440;9.178;2022-10-28T03:24:42;34.10;;;24.83;;
32399;SDS011;45045;45.440;9.178;2022-10-28T03:27:08;27.13;;;19.38;;
32399;SDS011;45045;45.440;9.178;2022-10-28T03:29:33;36.63;;;25.63;;
32399;SDS011;45045;45.440;9.178;2022-10-28T03:31:59;35.55;;;23.35;;
32399;SDS011;45045;45.440;9.178;2022-10-28T03:34:24;31.38;;;22.58;;
32399;SDS011;45045;45.440;9.178;2022-10-28T03:36:50;30.80;;;18.55;;
32399;SDS011;45045;45.440;9.178;2022-10-28T03:39:16;28.15;;;19.45;;
32399;SDS011;45045;45.440;9.178;2022-10-28T03:41:41;29.60;;;20.33;;
32399;SDS011;45045;45.440;9.178;2022-10-28T03:44:07;31.08;;;19.60;;
32399;SDS011;45045;45.440;9.178;2022-10-28T03:46:32;25.27;;;16.92;;
32399;SDS011;45045;45.440;9.178;2022-10-28T03:48:58;25.30;;;18.33;;
32399;SDS011;45045;45.440;9.178;2022-10-28T03:51:23;24.90;;;17.90;;
32399;SDS011;45045;45.440;9.178;2022-10-28T03:53:49;26.30;;;17.92;;
32399;SDS011;45045;45.440;9.178;2022-10-28T03:56:15;26.40;;;17.83;;
32399;SDS011;45045;45.440;9.178;2022-10-28T03:58:40;24.50;;;18.08;;
32399;SDS011;45045;45.440;9.178;2022-10-28T04:01:06;27.48;;;17.55;;
32399;SDS011;45045;45.440;9.178;2022-10-28T04:03:31;27.85;;;17.70;;
32399;SDS011;45045;45.440;9.178;2022-10-28T04:05:57;24.35;;;16.65;;
32399;SDS011;45045;45.440;9.178;2022-10-28T04:08:23;28.73;;;17.52;;
32399;SDS011;45045;45.440;9.178;2022-10-28T04:10:48;28.02;;;18.00;;
32399;SDS011;45045;45.440;9.178;2022-10-28T04:13:14;29.75;;;17.65;;
32399;SDS011;45045;45.440;9.178;2022-10-28T04:15:40;25.85;;;17.40;;
32399;SDS011;45045;45.440;9.178;2022-10-28T04:18:06;25.85;;;16.52;;
32399;SDS011;45045;45.440;9.178;2022-10-28T04:20:32;25.88;;;17.02;;
32399;SDS011;45045;45.440;9.178;2022-10-28T04:22:57;25.02;;;17.25;;
32399;SDS011;45045;45.440;9.178;2022-10-28T04:25:23;31.20;;;18.27;;
32399;SDS011;45045;45.440;9.178;2022-10-28T04:27:50;23.92;;;16.23;;
32399;SDS011;45045;45.440;9.178;2022-10-28T04:30:16;22.45;;;15.45;;
32399;SDS011;45045;45.440;9.178;2022-10-28T04:32:42;24.88;;;16.83;;
32399;SDS011;45045;45.440;9.178;2022-10-28T04:35:09;26.95;;;16.70;;
32399;SDS011;45045;45.440;9.178;2022-10-28T04:37:35;28.52;;;16.88;;
32399;SDS011;45045;45.440;9.178;2022-10-28T04:40:01;23.42;;;16.27;;
32399;SDS011;45045;45.440;9.178;2022-10-28T04:42:27;23.02;;;15.85;;
32399;SDS011;45045;45.440;9.178;2022-10-28T04:44:53;24.52;;;15.75;;
32399;SDS011;45045;45.440;9.178;2022-10-28T04:47:18;24.80;;;16.27;;
32399;SDS011;45045;45.440;9.178;2022-10-28T04:49:44;23.67;;;15.50;;
32399;SDS011;45045;45.440;9.178;2022-10-28T04:52:10;27.77;;;15.82;;
32399;SDS011;45045;45.440;9.178;2022-10-28T04:54:35;25.13;;;16.25;;
32399;SDS011;45045;45.440;9.178;2022-10-28T04:57:01;25.88;;;16.10;;
32399;SDS011;45045;45.440;9.178;2022-10-28T04:59:27;22.80;;;15.10;;
32399;SDS011;45045;45.440;9.178;2022-10-28T05:01:53;25.77;;;16.38;;
32399;SDS011;45045;45.440;9.178;2022-10-28T05:04:18;23.58;;;17.30;;
32399;SDS011;45045;45.440;9.178;2022-10-28T05:06:44;26.85;;;16.55;;
32399;SDS011;45045;45.440;9.178;2022-10-28T05:09:10;30.40;;;16.63;;
32399;SDS011;45045;45.440;9.178;2022-10-28T05:11:35;21.15;;;15.95;;
32399;SDS011;45045;45.440;9.178;2022-10-28T05:14:01;27.15;;;16.90;;
32399;SDS011;45045;45.440;9.178;2022-10-28T05:16:27;27.55;;;16.75;;
32399;SDS011;45045;45.440;9.178;2022-10-28T05:18:52;21.40;;;15.55;;
32399;SDS011;45045;45.440;9.178;2022-10-28T05:21:18;23.63;;;15.48;;
32399;SDS011;45045;45.440;9.178;2022-10-28T05:23:44;25.73;;;15.82;;
32399;SDS011;45045;45.440;9.178;2022-10-28T05:26:11;23.40;;;16.27;;
32399;SDS011;45045;45.440;9.178;2022-10-28T05:28:36;28.58;;;15.68;;
32399;SDS011;45045;45.440;9.178;2022-10-28T05:31:02;24.73;;;16.27;;
32399;SDS011;45045;45.440;9.178;2022-10-28T05:33:28;25.98;;;15.02;;
32399;SDS011;45045;45.440;9.178;2022-10-28T05:35:53;26.85;;;15.18;;
32399;SDS011;45045;45.440;9.178;2022-10-28T05:38:19;28.00;;;15.00;;
32399;SDS011;45045;45.440;9.178;2022-10-28T05:40:44;24.48;;;15.23;;
32399;SDS011;45045;45.440;9.178;2022-10-28T05:43:10;28.00;;;15.40;;
32399;SDS011;45045;45.440;9.178;2022-10-28T05:45:36;24.33;;;15.80;;
32399;SDS011;45045;45.440;9.178;2022-10-28T05:48:02;25.45;;;15.93;;
32399;SDS011;45045;45.440;9.178;2022-10-28T05:50:27;24.98;;;16.10;;
32399;SDS011;45045;45.440;9.178;2022-10-28T05:52:54;23.77;;;15.68;;
32399;SDS011;45045;45.440;9.178;2022-10-28T05:55:22;26.17;;;15.38;;
32399;SDS011;45045;45.440;9.178;2022-10-28T05:57:49;23.08;;;16.58;;
32399;SDS011;45045;45.440;9.178;2022-10-28T06:00:16;29.55;;;16.15;;
32399;SDS011;45045;45.440;9.178;2022-10-28T06:02:44;30.55;;;17.10;;
32399;SDS011;45045;45.440;9.178;2022-10-28T06:05:10;25.10;;;17.20;;
32399;SDS011;45045;45.440;9.178;2022-10-28T06:07:36;29.08;;;18.75;;
32399;SDS011;45045;45.440;9.178;2022-10-28T06:10:05;25.05;;;16.52;;
32399;SDS011;45045;45.440;9.178;2022-10-28T06:12:32;21.90;;;15.50;;
32399;SDS011;45045;45.440;9.178;2022-10-28T06:14:58;23.58;;;15.68;;
32399;SDS011;45045;45.440;9.178;2022-10-28T06:17:24;24.10;;;15.30;;
32399;SDS011;45045;45.440;9.178;2022-10-28T06:19:49;25.58;;;14.75;;
32399;SDS011;45045;45.440;9.178;2022-10-28T06:22:15;27.38;;;15.10;;
32399;SDS011;45045;45.440;9.178;2022-10-28T06:24:41;26.58;;;15.68;;
32399;SDS011;45045;45.440;9.178;2022-10-28T06:27:07;26.00;;;14.98;;
32399;SDS011;45045;45.440;9.178;2022-10-28T06:29:33;25.15;;;15.77;;
32399;SDS011;45045;45.440;9.178;2022-10-28T06:31:59;23.10;;;14.98;;
32399;SDS011;45045;45.440;9.178;2022-10-28T06:34:25;20.88;;;13.77;;
32399;SDS011;45045;45.440;9.178;2022-10-28T06:36:50;24.23;;;14.60;;
32399;SDS011;45045;45.440;9.178;2022-10-28T06:39:16;27.30;;;15.50;;
32399;SDS011;45045;45.440;9.178;2022-10-28T06:41:41;25.52;;;15.93;;
32399;SDS011;45045;45.440;9.178;2022-10-28T06:44:07;31.13;;;16.20;;
32399;SDS011;45045;45.440;9.178;2022-10-28T06:46:33;24.15;;;14.27;;
32399;SDS011;45045;45.440;9.178;2022-10-28T06:48:59;23.30;;;13.98;;
32399;SDS011;45045;45.440;9.178;2022-10-28T06:51:29;24.40;;;14.25;;
32399;SDS011;45045;45.440;9.178;2022-10-28T06:53:55;23.88;;;15.07;;
32399;SDS011;45045;45.440;9.178;2022-10-28T06:56:21;25.38;;;14.48;;
32399;SDS011;45045;45.440;9.178;2022-10-28T06:58:50;26.88;;;14.13;;
32399;SDS011;45045;45.440;9.178;2022-10-28T07:01:17;24.45;;;13.98;;
32399;SDS011;45045;45.440;9.178;2022-10-28T07:03:43;25.40;;;13.88;;
32399;SDS011;45045;45.440;9.178;2022-10-28T07:06:09;27.00;;;15.10;;
32399;SDS011;45045;45.440;9.178;2022-10-28T07:08:34;26.80;;;16.98;;
32399;SDS011;45045;45.440;9.178;2022-10-28T07:11:00;27.20;;;14.95;;
32399;SDS011;45045;45.440;9.178;2022-10-28T07:13:26;24.17;;;14.02;;
32399;SDS011;45045;45.440;9.178;2022-10-28T07:15:53;24.75;;;14.05;;
32399;SDS011;45045;45.440;9.178;2022-10-28T07:18:24;23.13;;;13.35;;
32399;SDS011;45045;45.440;9.178;2022-10-28T07:20:50;23.17;;;13.18;;
32399;SDS011;45045;45.440;9.178;2022-10-28T07:23:16;25.85;;;15.15;;
32399;SDS011;45045;45.440;9.178;2022-10-28T07:25:42;25.02;;;12.95;;
32399;SDS011;45045;45.440;9.178;2022-10-28T07:28:09;26.65;;;14.65;;
32399;SDS011;45045;45.440;9.178;2022-10-28T07:30:35;24.63;;;13.75;;
32399;SDS011;45045;45.440;9.178;2022-10-28T07:33:01;22.92;;;14.02;;
32399;SDS011;45045;45.440;9.178;2022-10-28T07:35:29;27.48;;;14.27;;
32399;SDS011;45045;45.440;9.178;2022-10-28T07:37:55;24.63;;;13.77;;
32399;SDS011;45045;45.440;9.178;2022-10-28T07:40:22;24.58;;;13.30;;
32399;SDS011;45045;45.440;9.178;2022-10-28T07:42:48;26.38;;;13.68;;
32399;SDS011;45045;45.440;9.178;2022-10-28T07:45:14;23.02;;;13.32;;
32399;SDS011;45045;45.440;9.178;2022-10-28T07:47:40;26.65;;;14.10;;
32399;SDS011;45045;45.440;9.178;2022-10-28T07:50:07;21.65;;;12.55;;
32399;SDS011;45045;45.440;9.178;2022-10-28T07:52:33;29.27;;;14.00;;
32399;SDS011;45045;45.440;9.178;2022-10-28T07:55:00;29.50;;;14.02;;
32399;SDS011;45045;45.440;9.178;2022-10-28T07:57:26;25.30;;;13.88;;
32399;SDS011;45045;45.440;9.178;2022-10-28T07:59:52;24.10;;;13.48;;
32399;SDS011;45045;45.440;9.178;2022-10-28T08:02:18;28.40;;;14.07;;
32399;SDS011;45045;45.440;9.178;2022-10-28T08:04:46;24.88;;;15.43;;
32399;SDS011;45045;45.440;9.178;2022-10-28T08:07:12;26.27;;;15.27;;
32399;SDS011;45045;45.440;9.178;2022-10-28T08:09:39;27.45;;;16.08;;
32399;SDS011;45045;45.440;9.178;2022-10-28T08:12:05;23.90;;;14.80;;
32399;SDS011;45045;45.440;9.178;2022-10-28T08:14:31;26.27;;;14.07;;
32399;SDS011;45045;45.440;9.178;2022-10-28T08:16:57;23.92;;;14.68;;
32399;SDS011;45045;45.440;9.178;2022-10-28T08:19:23;24.63;;;15.13;;
32399;SDS011;45045;45.440;9.178;2022-10-28T08:21:48;23.33;;;14.73;;
32399;SDS011;45045;45.440;9.178;2022-10-28T08:24:14;29.17;;;15.82;;
32399;SDS011;45045;45.440;9.178;2022-10-28T08:26:40;28.88;;;17.85;;
32399;SDS011;45045;45.440;9.178;2022-10-28T08:29:05;26.83;;;16.35;;
32399;SDS011;45045;45.440;9.178;2022-10-28T08:31:32;25.83;;;16.77;;
32399;SDS011;45045;45.440;9.178;2022-10-28T08:33:58;26.83;;;16.73;;
32399;SDS011;45045;45.440;9.178;2022-10-28T08:36:23;26.33;;;16.75;;
32399;SDS011;45045;45.440;9.178;2022-10-28T08:38:49;23.83;;;16.40;;
32399;SDS011;45045;45.440;9.178;2022-10-28T08:41:24;35.38;;;16.05;;
32399;SDS011;45045;45.440;9.178;2022-10-28T08:50:04;26.92;;;16.48;;
32399;SDS011;45045;45.440;9.178;2022-10-28T08:52:47;29.10;;;15.68;;
32399;SDS011;45045;45.440;9.178;2022-10-28T08:55:27;23.33;;;14.68;;
32399;SDS011;45045;45.440;9.178;2022-10-28T08:58:06;21.58;;;14.10;;
32399;SDS011;45045;45.440;9.178;2022-10-28T09:00:32;85.10;;;66.05;;
32399;SDS011;45045;45.440;9.178;2022-10-28T09:05:46;23.73;;;14.82;;
32399;SDS011;45045;45.440;9.178;2022-10-28T09:16:48;27.08;;;18.08;;
32399;SDS011;45045;45.440;9.178;2022-10-28T09:32:30;29.08;;;18.88;;
32399;SDS011;45045;45.440;9.178;2022-10-28T09:35:08;33.13;;;19.33;;
32399;SDS011;45045;45.440;9.178;2022-10-28T09:40:23;27.25;;;17.50;;
32399;SDS011;45045;45.440;9.178;2022-10-28T09:45:22;35.78;;;21.08;;
32399;SDS011;45045;45.440;9.178;2022-10-28T09:48:13;43.25;;;26.60;;
32399;SDS011;45045;45.440;9.178;2022-10-28T09:50:55;44.13;;;23.20;;
32399;SDS011;45045;45.440;9.178;2022-10-28T09:56:01;32.20;;;21.40;;
32399;SDS011;45045;45.440;9.178;2022-10-28T09:58:27;37.45;;;23.65;;
32399;SDS011;45045;45.440;9.178;2022-10-28T10:00:53;41.53;;;24.58;;
32399;SDS011;45045;45.440;9.178;2022-10-28T10:03:18;40.55;;;23.83;;
32399;SDS011;45045;45.440;9.178;2022-10-28T10:05:47;40.10;;;23.23;;
32399;SDS011;45045;45.440;9.178;2022-10-28T10:08:16;37.55;;;22.60;;
32399;SDS011;45045;45.440;9.178;2022-10-28T10:10:48;42.67;;;23.02;;
32399;SDS011;45045;45.440;9.178;2022-10-28T10:13:21;39.97;;;24.83;;
32399;SDS011;45045;45.440;9.178;2022-10-28T10:15:55;39.45;;;23.17;;
32399;SDS011;45045;45.440;9.178;2022-10-28T10:18:27;36.92;;;22.95;;
32399;SDS011;45045;45.440;9.178;2022-10-28T10:20:57;37.35;;;22.85;;
32399;SDS011;45045;45.440;9.178;2022-10-28T10:26:02;35.75;;;22.50;;
32399;SDS011;45045;45.440;9.178;2022-10-28T10:28:28;32.22;;;20.55;;
32399;SDS011;45045;45.440;9.178;2022-10-28T10:30:56;31.45;;;20.90;;
32399;SDS011;45045;45.440;9.178;2022-10-28T10:36:32;37.47;;;21.15;;
32399;SDS011;45045;45.440;9.178;2022-10-28T10:38:48;37.03;;;22.10;;
32399;SDS011;45045;45.440;9.178;2022-10-28T10:46:46;36.10;;;21.47;;
32399;SDS011;45045;45.440;9.178;2022-10-28T10:49:24;32.50;;;21.75;;
32399;SDS011;45045;45.440;9.178;2022-10-28T10:54:25;39.88;;;25.58;;
32399;SDS011;45045;45.440;9.178;2022-10-28T10:59:45;34.38;;;20.63;;
32399;SDS011;45045;45.440;9.178;2022-10-28T11:04:50;37.33;;;20.30;;
32399;SDS011;45045;45.440;9.178;2022-10-28T11:07:23;32.40;;;20.42;;
32399;SDS011;45045;45.440;9.178;2022-10-28T11:09:49;35.03;;;21.50;;
32399;SDS011;45045;45.440;9.178;2022-10-28T11:15:38;35.67;;;21.73;;
32399;SDS011;45045;45.440;9.178;2022-10-28T11:23:44;40.40;;;22.30;;
32399;SDS011;45045;45.440;9.178;2022-10-28T11:39:40;31.75;;;19.65;;
32399;SDS011;45045;45.440;9.178;2022-10-28T12:17:54;44.17;;;30.38;;
32399;SDS011;45045;45.440;9.178;2022-10-28T12:20:32;31.58;;;18.05;;
32399;SDS011;45045;45.440;9.178;2022-10-28T12:23:07;31.02;;;18.73;;
32399;SDS011;45045;45.440;9.178;2022-10-28T12:25:37;28.65;;;17.90;;
32399;SDS011;45045;45.440;9.178;2022-10-28T12:28:20;28.77;;;17.85;;
32399;SDS011;45045;45.440;9.178;2022-10-28T12:30:50;30.10;;;18.23;;
32399;SDS011;45045;45.440;9.178;2022-10-28T12:35:50;30.83;;;16.90;;
32399;SDS011;45045;45.440;9.178;2022-10-28T12:41:54;32.40;;;19.60;;
32399;SDS011;45045;45.440;9.178;2022-10-28T12:44:08;35.75;;;18.73;;
32399;SDS011;45045;45.440;9.178;2022-10-28T12:49:38;29.17;;;18.65;;
32399;SDS011;45045;45.440;9.178;2022-10-28T12:52:15;28.10;;;19.08;;
32399;SDS011;45045;45.440;9.178;2022-10-28T12:57:53;31.15;;;18.67;;
32399;SDS011;45045;45.440;9.178;2022-10-28T13:00:26;32.53;;;19.25;;
32399;SDS011;45045;45.440;9.178;2022-10-28T13:05:32;35.05;;;20.63;;
32399;SDS011;45045;45.440;9.178;2022-10-28T13:08:22;33.33;;;21.67;;
32399;SDS011;45045;45.440;9.178;2022-10-28T13:16:53;31.58;;;20.67;;
32399;SDS011;45045;45.440;9.178;2022-10-28T13:19:30;37.28;;;19.60;;
32399;SDS011;45045;45.440;9.178;2022-10-28T13:27:18;31.10;;;19.42;;
32399;SDS011;45045;45.440;9.178;2022-10-28T13:29:47;26.67;;;19.27;;
32399;SDS011;45045;45.440;9.178;2022-10-28T13:32:34;33.47;;;20.40;;
32399;SDS011;45045;45.440;9.178;2022-10-28T13:35:09;31.17;;;18.80;;
32399;SDS011;45045;45.440;9.178;2022-10-28T13:37:38;29.38;;;18.02;;
32399;SDS011;45045;45.440;9.178;2022-10-28T13:40:05;34.20;;;20.08;;
32399;SDS011;45045;45.440;9.178;2022-10-28T13:42:45;27.73;;;19.02;;
32399;SDS011;45045;45.440;9.178;2022-10-28T13:45:42;29.17;;;17.45;;
32399;SDS011;45045;45.440;9.178;2022-10-28T14:09:35;31.60;;;19.73;;
32399;SDS011;45045;45.440;9.178;2022-10-28T14:12:17;36.58;;;21.20;;
32399;SDS011;45045;45.440;9.178;2022-10-28T14:14:53;36.70;;;23.40;;
32399;SDS011;45045;45.440;9.178;2022-10-28T14:17:24;49.60;;;36.65;;
32399;SDS011;45045;45.440;9.178;2022-10-28T14:19:58;24.70;;;16.35;;
32399;SDS011;45045;45.440;9.178;2022-10-28T14:22:29;32.30;;;18.33;;
32399;SDS011;45045;45.440;9.178;2022-10-28T14:24:57;23.38;;;14.60;;
32399;SDS011;45045;45.440;9.178;2022-10-28T14:27:56;21.38;;;13.00;;
32399;SDS011;45045;45.440;9.178;2022-10-28T14:30:17;24.50;;;12.73;;
32399;SDS011;45045;45.440;9.178;2022-10-28T14:40:24;19.52;;;12.05;;
32399;SDS011;45045;45.440;9.178;2022-10-28T14:45:30;20.20;;;12.35;;
32399;SDS011;45045;45.440;9.178;2022-10-28T14:50:46;21.92;;;11.35;;
32399;SDS011;45045;45.440;9.178;2022-10-28T14:53:19;20.67;;;9.90;;
32399;SDS011;45045;45.440;9.178;2022-10-28T14:56:00;16.23;;;10.50;;
32399;SDS011;45045;45.440;9.178;2022-10-28T14:58:41;21.50;;;11.90;;
32399;SDS011;45045;45.440;9.178;2022-10-28T15:09:17;18.83;;;9.80;;
32399;SDS011;45045;45.440;9.178;2022-10-28T15:11:48;21.15;;;11.18;;
32399;SDS011;45045;45.440;9.178;2022-10-28T15:14:23;21.65;;;10.63;;
32399;SDS011;45045;45.440;9.178;2022-10-28T15:16:49;24.58;;;10.45;;
32399;SDS011;45045;45.440;9.178;2022-10-28T15:19:16;16.08;;;8.20;;
32399;SDS011;45045;45.440;9.178;2022-10-28T15:22:03;17.73;;;9.52;;
32399;SDS011;45045;45.440;9.178;2022-10-28T15:24:35;20.23;;;9.48;;
32399;SDS011;45045;45.440;9.178;2022-10-28T15:27:01;19.27;;;9.57;;
32399;SDS011;45045;45.440;9.178;2022-10-28T15:29:27;21.42;;;10.43;;
32399;SDS011;45045;45.440;9.178;2022-10-28T15:32:06;42.13;;;32.20;;
32399;SDS011;45045;45.440;9.178;2022-10-28T15:34:40;23.40;;;16.13;;
32399;SDS011;45045;45.440;9.178;2022-10-28T15:37:06;19.17;;;9.57;;
32399;SDS011;45045;45.440;9.178;2022-10-28T15:39:32;20.10;;;9.82;;
32399;SDS011;45045;45.440;9.178;2022-10-28T15:41:58;15.70;;;9.05;;
32399;SDS011;45045;45.440;9.178;2022-10-28T15:52:46;17.27;;;8.63;;
32399;SDS011;45045;45.440;9.178;2022-10-28T15:57:52;20.63;;;8.52;;
32399;SDS011;45045;45.440;9.178;2022-10-28T16:00:24;17.33;;;8.60;;
32399;SDS011;45045;45.440;9.178;2022-10-28T16:10:35;16.67;;;8.52;;
32399;SDS011;45045;45.440;9.178;2022-10-28T16:13:29;14.80;;;8.45;;
32399;SDS011;45045;45.440;9.178;2022-10-28T16:18:38;15.73;;;8.13;;
32399;SDS011;45045;45.440;9.178;2022-10-28T16:21:05;22.88;;;10.18;;
32399;SDS011;45045;45.440;9.178;2022-10-28T16:23:32;24.52;;;11.00;;
32399;SDS011;45045;45.440;9.178;2022-10-28T16:26:03;23.20;;;13.07;;
32399;SDS011;45045;45.440;9.178;2022-10-28T16:28:29;31.52;;;13.77;;
32399;SDS011;45045;45.440;9.178;2022-10-28T16:30:56;31.65;;;17.52;;
32399;SDS011;45045;45.440;9.178;2022-10-28T16:33:25;31.35;;;15.88;;
32399;SDS011;45045;45.440;9.178;2022-10-28T16:35:56;33.28;;;16.38;;
32399;SDS011;45045;45.440;9.178;2022-10-28T16:38:23;27.15;;;14.00;;
32399;SDS011;45045;45.440;9.178;2022-10-28T16:40:49;30.67;;;19.45;;
32399;SDS011;45045;45.440;9.178;2022-10-28T16:43:18;33.13;;;15.70;;
32399;SDS011;45045;45.440;9.178;2022-10-28T16:45:47;36.33;;;14.77;;
32399;SDS011;45045;45.440;9.178;2022-10-28T16:48:14;28.38;;;14.88;;
32399;SDS011;45045;45.440;9.178;2022-10-28T16:50:48;30.42;;;12.02;;
32399;SDS011;45045;45.440;9.178;2022-10-28T16:53:15;23.00;;;9.35;;
32399;SDS011;45045;45.440;9.178;2022-10-28T16:55:41;20.48;;;9.52;;
32399;SDS011;45045;45.440;9.178;2022-10-28T16:58:07;25.63;;;10.85;;
32399;SDS011;45045;45.440;9.178;2022-10-28T17:00:34;22.75;;;10.70;;
32399;SDS011;45045;45.440;9.178;2022-10-28T17:03:00;18.65;;;10.07;;
32399;SDS011;45045;45.440;9.178;2022-10-28T17:05:26;18.67;;;8.65;;
32399;SDS011;45045;45.440;9.178;2022-10-28T17:07:52;20.65;;;10.15;;
32399;SDS011;45045;45.440;9.178;2022-10-28T17:10:22;23.77;;;12.18;;
32399;SDS011;45045;45.440;9.178;2022-10-28T17:12:48;26.80;;;13.82;;
32399;SDS011;45045;45.440;9.178;2022-10-28T17:15:14;22.13;;;12.43;;
32399;SDS011;45045;45.440;9.178;2022-10-28T17:17:41;28.02;;;12.63;;
32399;SDS011;45045;45.440;9.178;2022-10-28T17:20:06;25.08;;;12.45;;
32399;SDS011;45045;45.440;9.178;2022-10-28T17:22:32;23.25;;;12.10;;
32399;SDS011;45045;45.440;9.178;2022-10-28T17:24:59;22.25;;;10.48;;
32399;SDS011;45045;45.440;9.178;2022-10-28T17:27:24;25.17;;;11.35;;
32399;SDS011;45045;45.440;9.178;2022-10-28T17:29:50;24.85;;;10.10;;
32399;SDS011;45045;45.440;9.178;2022-10-28T17:32:16;21.27;;;9.45;;
32399;SDS011;45045;45.440;9.178;2022-10-28T17:34:42;16.58;;;9.55;;
32399;SDS011;45045;45.440;9.178;2022-10-28T17:37:08;19.40;;;10.05;;
32399;SDS011;45045;45.440;9.178;2022-10-28T17:39:34;18.48;;;9.90;;
32399;SDS011;45045;45.440;9.178;2022-10-28T17:42:00;18.85;;;9.20;;
32399;SDS011;45045;45.440;9.178;2022-10-28T17:44:25;21.05;;;8.57;;
32399;SDS011;45045;45.440;9.178;2022-10-28T17:46:51;20.85;;;9.50;;
32399;SDS011;45045;45.440;9.178;2022-10-28T17:49:17;18.67;;;9.45;;
32399;SDS011;45045;45.440;9.178;2022-10-28T17:51:43;19.70;;;9.18;;
32399;SDS011;45045;45.440;9.178;2022-10-28T17:54:09;18.05;;;8.73;;
32399;SDS011;45045;45.440;9.178;2022-10-28T17:56:35;25.83;;;8.77;;
32399;SDS011;45045;45.440;9.178;2022-10-28T17:59:01;18.48;;;8.50;;
32399;SDS011;45045;45.440;9.178;2022-10-28T18:01:28;24.60;;;8.95;;
32399;SDS011;45045;45.440;9.178;2022-10-28T18:03:55;18.58;;;9.05;;
32399;SDS011;45045;45.440;9.178;2022-10-28T18:06:21;21.05;;;8.55;;
32399;SDS011;45045;45.440;9.178;2022-10-28T18:08:46;19.98;;;8.77;;
32399;SDS011;45045;45.440;9.178;2022-10-28T18:11:13;25.65;;;9.55;;
32399;SDS011;45045;45.440;9.178;2022-10-28T18:13:41;17.55;;;8.00;;
32399;SDS011;45045;45.440;9.178;2022-10-28T18:16:19;18.70;;;8.05;;
32399;SDS011;45045;45.440;9.178;2022-10-28T18:18:48;18.50;;;8.57;;
32399;SDS011;45045;45.440;9.178;2022-10-28T18:21:14;16.20;;;8.18;;
32399;SDS011;45045;45.440;9.178;2022-10-28T18:23:40;26.67;;;14.23;;
32399;SDS011;45045;45.440;9.178;2022-10-28T18:26:09;24.00;;;13.77;;
32399;SDS011;45045;45.440;9.178;2022-10-28T18:28:37;24.90;;;10.25;;
32399;SDS011;45045;45.440;9.178;2022-10-28T18:31:04;20.67;;;9.27;;
32399;SDS011;45045;45.440;9.178;2022-10-28T18:33:35;19.92;;;8.85;;
32399;SDS011;45045;45.440;9.178;2022-10-28T18:36:02;24.45;;;9.48;;
32399;SDS011;45045;45.440;9.178;2022-10-28T18:38:32;23.33;;;9.55;;
32399;SDS011;45045;45.440;9.178;2022-10-28T18:40:58;20.08;;;9.07;;